Time;durP1;ratioP1;P1;durP2;ratioP2;P2;SDS_P1;SDS_P2;PMS_P1;PMS_P2;Temp;Humidity;BMP_temperature;BMP_pressure;BME280_temperature;BME280_humidity;BME280_pressure;Samples;Min_cycle;Max_cycle;Signal;HPM_P1;HPM_P2
2022/11/28 00:01:30;;;;;;;;;7.50;7.25;;;;;11.30;65.37;100562.78;5031756;27;46581;-37
2022/11/28 00:03:56;;;;;;;;;12.25;7.00;;;;;11.30;64.85;100563.63;5028561;28;45447;-37
2022/11/28 00:06:21;;;;;;;;;9.00;8.00;;;;;11.27;64.80;100547.16;5035907;27;45326;-37
2022/11/28 00:08:47;;;;;;;;;10.00;7.50;;;;;11.33;64.76;100541.72;5025599;28;64156;-37
2022/11/28 00:11:14;;;;;;;;;9.75;9.00;;;;;11.33;64.82;100539.97;5050650;28;53612;-37
2022/11/28 00:13:40;;;;;;;;;8.00;7.25;;;;;11.30;65.19;100537.44;5036866;28;45666;-37
2022/11/28 00:16:07;;;;;;;;;9.00;7.25;;;;;11.31;65.27;100530.44;5027860;28;45806;-37
2022/11/28 00:18:33;;;;;;;;;10.00;8.00;;;;;11.31;65.24;100528.66;5020841;28;45476;-37
2022/11/28 00:21:03;;;;;;;;;7.50;6.00;;;;;11.33;65.46;100526.00;5033286;28;47205;-37
2022/11/28 00:23:29;;;;;;;;;10.50;9.25;;;;;11.34;64.93;100525.09;5030568;27;45845;-37
2022/11/28 00:25:59;;;;;;;;;10.50;8.50;;;;;11.34;65.17;100525.09;5041303;27;45283;-37
2022/11/28 00:28:24;;;;;;;;;9.00;6.75;;;;;11.33;64.62;100523.38;5031925;28;45448;-37
2022/11/28 00:30:50;;;;;;;;;5.75;3.00;;;;;11.33;65.26;100519.00;5029349;28;65922;-37
2022/11/28 00:33:15;;;;;;;;;8.00;5.50;;;;;11.35;65.11;100511.06;5044971;28;60535;-37
2022/11/28 00:35:40;;;;;;;;;7.00;6.75;;;;;11.35;65.43;100505.81;5034810;28;56821;-37
2022/11/28 00:38:06;;;;;;;;;6.50;5.50;;;;;11.34;65.16;100510.22;5027095;28;65133;-37
2022/11/28 00:40:31;;;;;;;;;7.75;7.00;;;;;11.34;65.24;100501.50;5038628;27;45486;-41
2022/11/28 00:42:56;;;;;;;;;7.50;7.50;;;;;11.36;65.74;100515.41;5036004;28;69568;-37
2022/11/28 00:45:22;;;;;;;;;7.50;6.25;;;;;11.37;65.16;100504.88;5024436;28;57479;-37
2022/11/28 00:47:48;;;;;;;;;6.00;6.00;;;;;11.40;65.29;100504.78;5025237;28;68100;-37
2022/11/28 00:50:13;;;;;;;;;8.00;7.00;;;;;11.42;65.36;100501.25;5035729;27;47187;-37
2022/11/28 00:52:39;;;;;;;;;5.50;5.00;;;;;11.43;64.99;100492.47;5093216;27;45464;-37
2022/11/28 00:55:04;;;;;;;;;7.00;6.50;;;;;11.41;65.03;100492.53;5023837;28;63434;-37
2022/11/28 00:57:29;;;;;;;;;7.00;5.00;;;;;11.39;64.82;100495.19;5034281;28;45424;-37
2022/11/28 00:59:55;;;;;;;;;7.25;6.00;;;;;11.38;65.38;100490.88;5031167;28;73669;-38
2022/11/28 01:02:20;;;;;;;;;7.00;5.75;;;;;11.38;65.53;100501.38;5036606;27;64403;-37
2022/11/28 01:04:45;;;;;;;;;5.75;5.75;;;;;11.40;65.41;100501.28;5033118;28;45196;-37
2022/11/28 01:07:11;;;;;;;;;8.25;8.25;;;;;11.37;65.34;100491.78;5018766;28;69803;-37
2022/11/28 01:09:36;;;;;;;;;6.00;6.00;;;;;11.40;65.51;100491.69;5020215;28;59340;-37
2022/11/28 01:12:02;;;;;;;;;8.75;4.00;;;;;11.41;65.53;100489.91;5021582;28;69966;-37
2022/11/28 01:14:29;;;;;;;;;7.00;7.00;;;;;11.44;65.28;100491.56;5021380;28;45552;-37
2022/11/28 01:16:54;;;;;;;;;6.00;5.25;;;;;11.44;65.36;100495.06;5032655;28;45655;-37
2022/11/28 01:19:20;;;;;;;;;7.25;4.50;;;;;11.45;65.45;100495.91;5042738;28;69374;-37
2022/11/28 01:21:46;;;;;;;;;8.50;8.00;;;;;11.46;65.51;100500.25;5036571;28;45439;-41
2022/11/28 01:24:11;;;;;;;;;5.50;5.50;;;;;11.47;65.24;100504.56;5032447;28;47129;-37
2022/11/28 01:26:39;;;;;;;;;1.00;0.00;;;;;11.48;65.35;100504.50;5019993;28;45365;-37
2022/11/28 01:29:04;;;;;;;;;6.00;6.00;;;;;11.48;65.58;100495.81;5030457;28;46228;-37
2022/11/28 01:31:29;;;;;;;;;9.00;5.25;;;;;11.49;65.28;100502.75;5028864;28;45504;-37
2022/11/28 01:33:55;;;;;;;;;5.75;5.50;;;;;11.48;65.40;100499.28;5028300;28;45565;-37
2022/11/28 01:36:21;;;;;;;;;6.00;5.00;;;;;11.52;65.88;100498.25;5029042;28;45503;-37
2022/11/28 01:38:47;;;;;;;;;9.75;6.00;;;;;11.55;65.81;100505.16;5028621;28;45974;-37
2022/11/28 01:41:14;;;;;;;;;10.00;9.00;;;;;11.57;65.32;100509.44;5048077;28;46061;-37
2022/11/28 01:44:15;;;;;;;;;7.75;6.00;;;;;11.61;65.79;100512.81;5028213;28;45678;-37
2022/11/28 01:46:41;;;;;;;;;8.00;5.75;;;;;11.64;65.33;100522.34;5021012;28;45433;-37
2022/11/28 01:49:25;;;;;;;;;10.50;7.00;;;;;11.65;65.38;100522.28;5038594;27;46320;-37
2022/11/28 01:51:56;;;;;;;;;8.00;6.00;;;;;11.67;65.48;100523.09;5024213;28;45415;-37
2022/11/28 01:54:24;;;;;;;;;8.25;7.75;;;;;11.69;65.26;100528.28;5029154;28;45353;-37
2022/11/28 01:56:54;;;;;;;;;8.00;6.50;;;;;11.69;65.30;100530.91;5029734;28;45407;-37
2022/11/28 01:59:23;;;;;;;;;8.00;8.00;;;;;11.68;65.62;100530.03;5043206;28;46163;-37
2022/11/28 02:01:48;;;;;;;;;11.75;9.00;;;;;11.68;65.26;100534.41;5027427;28;45486;-37
2022/11/28 02:04:13;;;;;;;;;9.50;8.50;;;;;11.64;65.38;100525.81;5021293;28;67756;-37
2022/11/28 02:06:40;;;;;;;;;9.75;8.50;;;;;11.64;65.35;100524.97;5058041;27;45351;-37
2022/11/28 02:09:09;;;;;;;;;10.50;8.50;;;;;11.64;65.28;100533.66;5036073;28;46414;-37
2022/11/28 02:12:10;;;;;;;;;9.75;7.75;;;;;11.64;65.79;100530.19;5039443;28;45469;-37
2022/11/28 02:14:48;;;;;;;;;13.00;10.25;;;;;11.65;65.87;100535.41;5032213;28;45265;-37
2022/11/28 02:17:27;;;;;;;;;13.50;9.50;;;;;11.67;65.50;100533.56;5033983;28;45553;-37
2022/11/28 02:20:10;;;;;;;;;10.25;8.50;;;;;11.70;65.89;100530.81;5025435;28;47961;-37
2022/11/28 02:22:40;;;;;;;;;9.25;9.25;;;;;11.72;65.43;100518.53;5033902;28;45369;-37
2022/11/28 02:25:27;;;;;;;;;8.00;8.00;;;;;11.75;65.36;100528.06;5035138;28;47034;-37
2022/11/28 02:28:16;;;;;;;;;8.00;7.00;;;;;11.76;65.79;100517.50;5030882;28;46006;-37
2022/11/28 02:31:08;;;;;;;;;9.50;7.25;;;;;11.77;65.41;100514.00;5028916;28;45449;-37
2022/11/28 02:33:35;;;;;;;;;7.25;6.50;;;;;11.79;65.73;100511.28;5021622;28;45513;-37
2022/11/28 02:36:38;;;;;;;;;7.25;7.25;;;;;11.82;66.20;100507.72;5035674;28;45326;-37
2022/11/28 02:39:29;;;;;;;;;7.00;6.25;;;;;11.83;65.70;100507.66;5044095;27;45511;-37
2022/11/28 02:42:36;;;;;;;;;6.75;6.25;;;;;11.87;65.98;100509.25;5021302;28;45281;-38
2022/11/28 02:45:13;;;;;;;;;8.00;8.00;;;;;11.89;65.88;100517.06;5028244;28;45307;-38
2022/11/28 02:47:45;;;;;;;;;11.75;9.00;;;;;11.90;65.47;100505.69;5034144;28;45425;-37
2022/11/28 02:50:24;;;;;;;;;7.00;7.00;;;;;11.90;65.84;100506.56;5041300;28;45200;-37
2022/11/28 02:52:53;;;;;;;;;11.50;9.00;;;;;11.91;65.61;100504.78;5037528;27;45310;-37
2022/11/28 02:55:19;;;;;;;;;8.50;7.50;;;;;11.91;65.62;100489.91;5039856;27;45355;-37
2022/11/28 02:57:50;;;;;;;;;9.25;7.25;;;;;11.90;66.05;100477.72;5011441;28;45363;-37
2022/11/28 03:00:24;;;;;;;;;9.75;9.75;;;;;11.94;66.24;100475.84;5033448;28;45667;-37
2022/11/28 03:02:56;;;;;;;;;10.50;7.50;;;;;11.95;66.22;100480.16;5027837;27;46227;-37
2022/11/28 03:05:45;;;;;;;;;8.00;8.00;;;;;11.99;66.32;100480.91;5032090;28;45440;-37
2022/11/28 03:08:39;;;;;;;;;13.00;9.75;;;;;12.00;66.07;100474.75;5040393;28;45744;-37
2022/11/28 03:11:37;;;;;;;;;10.00;9.50;;;;;12.02;66.06;100473.78;5012300;28;45511;-37
2022/11/28 03:14:11;;;;;;;;;13.75;9.00;;;;;12.04;66.18;100457.97;4982173;28;45529;-37
2022/11/28 03:16:49;;;;;;;;;10.75;9.00;;;;;12.06;66.16;100458.81;5033449;28;45867;-37
2022/11/28 03:19:26;;;;;;;;;13.00;8.75;;;;;12.06;65.81;100461.44;5027423;28;45348;-37
2022/11/28 03:22:02;;;;;;;;;10.75;9.50;;;;;12.07;65.81;100471.84;5030339;28;45307;-37
2022/11/28 03:24:36;;;;;;;;;10.50;7.75;;;;;12.08;65.91;100472.72;5022668;28;46349;-37
2022/11/28 03:27:37;;;;;;;;;9.00;7.25;;;;;12.09;65.68;100482.28;5017362;28;45362;-37
2022/11/28 03:30:10;;;;;;;;;9.75;8.75;;;;;12.10;66.00;100484.00;4982055;28;45341;-37
2022/11/28 03:32:36;;;;;;;;;10.00;8.50;;;;;12.10;65.64;100471.72;5028921;28;45560;-37
2022/11/28 03:35:06;;;;;;;;;12.00;10.50;;;;;12.12;65.91;100482.16;5033801;28;46213;-37
2022/11/28 03:37:35;;;;;;;;;12.00;9.25;;;;;12.12;65.91;100483.00;5022406;28;45938;-37
2022/11/28 03:40:11;;;;;;;;;9.50;8.50;;;;;12.12;65.43;100490.88;5038145;28;45385;-37
2022/11/28 03:42:41;;;;;;;;;13.75;9.00;;;;;12.14;65.95;100493.47;5049959;28;45476;-37
2022/11/28 03:45:23;;;;;;;;;9.00;9.00;;;;;12.13;65.73;100489.97;5025670;28;47057;-37
2022/11/28 03:47:56;;;;;;;;;8.00;8.00;;;;;12.13;65.74;100491.75;5040129;27;45524;-37
2022/11/28 03:50:33;;;;;;;;;12.50;10.25;;;;;12.12;65.79;100487.41;5010454;27;45295;-38
2022/11/28 03:53:03;;;;;;;;;10.75;8.00;;;;;12.12;65.71;100488.25;5019282;28;45858;-37
2022/11/28 03:55:38;;;;;;;;;11.00;9.00;;;;;12.13;65.91;100478.66;5030514;27;45618;-37
2022/11/28 03:58:11;;;;;;;;;11.00;10.75;;;;;12.14;65.75;100468.06;5028554;27;46004;-37
2022/11/28 04:00:47;;;;;;;;;10.75;9.00;;;;;12.15;65.74;100466.31;5021392;28;45449;-37
2022/11/28 04:03:35;;;;;;;;;10.00;8.75;;;;;12.17;65.35;100464.50;5028701;27;45634;-37
2022/11/28 04:06:15;;;;;;;;;9.50;8.75;;;;;12.17;65.50;100463.66;5031398;28;46326;-37
2022/11/28 04:08:49;;;;;;;;;10.75;9.00;;;;;12.18;65.75;100465.34;5018653;28;45400;-37
2022/11/28 04:11:32;;;;;;;;;12.00;10.00;;;;;12.19;65.60;100470.53;5030523;28;45333;-37
2022/11/28 04:14:17;;;;;;;;;13.00;11.00;;;;;12.18;65.78;100470.59;5040758;28;45338;-37
2022/11/28 04:17:01;;;;;;;;;15.50;11.75;;;;;12.18;65.99;100479.31;5030534;28;45420;-38
2022/11/28 04:19:34;;;;;;;;;10.00;9.25;;;;;12.17;65.50;100479.38;5033991;27;45490;-38
2022/11/28 04:22:17;;;;;;;;;11.25;9.00;;;;;12.13;65.35;100479.50;5038969;28;45467;-37
2022/11/28 04:24:48;;;;;;;;;10.00;8.00;;;;;12.11;65.65;100480.44;5036821;28;45311;-38
2022/11/28 04:27:18;;;;;;;;;12.00;11.00;;;;;12.09;65.72;100469.16;5024473;28;45997;-37
2022/11/28 04:29:51;;;;;;;;;13.75;11.75;;;;;12.10;65.70;100465.63;5053581;28;45532;-37
2022/11/28 04:32:18;;;;;;;;;12.25;10.00;;;;;12.10;65.74;100479.59;5079069;27;45443;-37
2022/11/28 04:34:45;;;;;;;;;16.00;12.50;;;;;12.10;65.76;100479.59;5025091;28;45306;-37
2022/11/28 04:37:15;;;;;;;;;11.75;11.00;;;;;12.12;65.33;100483.00;5014704;28;46371;-37
2022/11/28 04:39:44;;;;;;;;;10.00;8.75;;;;;12.12;65.48;100485.63;5022931;28;45399;-37
2022/11/28 04:42:42;;;;;;;;;13.50;11.25;;;;;12.12;65.46;100483.00;5025197;28;45482;-37
2022/11/28 04:45:14;;;;;;;;;11.25;9.00;;;;;12.12;65.75;100485.63;4993246;28;45510;-37
2022/11/28 04:47:39;;;;;;;;;15.50;10.75;;;;;12.12;65.48;100487.41;5023296;28;45278;-37
2022/11/28 04:50:06;;;;;;;;;8.75;8.75;;;;;12.12;65.77;100488.25;5019574;28;67282;-37
2022/11/28 04:52:41;;;;;;;;;9.00;9.00;;;;;12.14;65.77;100496.91;5039588;27;45426;-37
2022/11/28 04:55:14;;;;;;;;;12.25;10.00;;;;;12.17;65.90;100509.09;5030653;28;45706;-37
2022/11/28 04:57:50;;;;;;;;;10.75;9.00;;;;;12.15;65.67;100503.91;5029790;28;47411;-37
2022/11/28 05:00:18;;;;;;;;;10.25;10.25;;;;;12.19;65.65;100501.16;5038274;27;45560;-37
2022/11/28 05:02:45;;;;;;;;;11.75;9.75;;;;;12.19;65.60;100486.28;5030162;27;45377;-38
2022/11/28 05:05:20;;;;;;;;;11.00;10.00;;;;;12.17;65.85;100480.22;5038605;28;45557;-37
2022/11/28 05:07:46;;;;;;;;;13.75;10.75;;;;;12.18;65.41;100467.97;5031089;28;45506;-37
2022/11/28 05:10:14;;;;;;;;;15.00;12.75;;;;;12.19;65.78;100453.94;5033361;27;45281;-38
2022/11/28 05:12:40;;;;;;;;;9.50;8.00;;;;;12.22;65.70;100461.72;5106510;27;45817;-37
2022/11/28 05:15:06;;;;;;;;;12.75;10.00;;;;;12.21;65.63;100471.31;5031256;28;45502;-38
2022/11/28 05:17:32;;;;;;;;;7.50;7.50;;;;;12.25;65.54;100477.31;5035581;28;45429;-37
2022/11/28 05:19:57;;;;;;;;;12.25;9.00;;;;;12.24;65.76;100476.47;5037724;28;45297;-37
2022/11/28 05:22:23;;;;;;;;;10.50;9.00;;;;;12.27;65.55;100480.72;5025274;28;45596;-37
2022/11/28 05:24:48;;;;;;;;;13.75;11.00;;;;;12.26;65.32;100479.03;5036391;28;66901;-37
2022/11/28 05:27:13;;;;;;;;;9.00;9.00;;;;;12.23;65.57;100484.38;5037796;28;66462;-37
2022/11/28 05:29:42;;;;;;;;;10.00;8.50;;;;;12.20;65.15;100480.13;5036828;28;74897;-38
2022/11/28 05:32:08;;;;;;;;;12.00;10.50;;;;;12.17;65.45;100472.38;5024665;28;45359;-37
2022/11/28 05:34:34;;;;;;;;;12.50;10.00;;;;;12.17;65.28;100469.75;5027911;28;45229;-37
2022/11/28 05:37:00;;;;;;;;;13.25;9.50;;;;;12.17;65.33;100459.25;5027536;28;45410;-37
2022/11/28 05:39:25;;;;;;;;;10.00;10.00;;;;;12.15;65.43;100461.06;5026099;28;66019;-37
2022/11/28 05:41:51;;;;;;;;;11.25;9.25;;;;;12.10;65.52;100470.88;5028491;28;45463;-37
2022/11/28 05:44:16;;;;;;;;;12.75;10.50;;;;;12.06;65.45;100474.53;5028171;28;66594;-37
2022/11/28 05:46:41;;;;;;;;;0.00;0.00;;;;;12.06;65.57;100477.16;5027341;28;71511;-37
2022/11/28 05:49:07;;;;;;;;;12.50;9.00;;;;;12.05;65.87;100478.91;5030842;28;61190;-38
2022/11/28 05:51:32;;;;;;;;;9.25;8.00;;;;;12.03;65.75;100472.88;5039186;28;45463;-38
2022/11/28 05:53:58;;;;;;;;;12.00;7.75;;;;;12.07;65.84;100478.84;5067491;27;51071;-37
2022/11/28 05:56:23;;;;;;;;;11.50;9.50;;;;;12.05;65.81;100471.03;5026822;28;64998;-37
2022/11/28 05:58:49;;;;;;;;;12.50;9.25;;;;;12.05;66.09;100470.19;5028783;28;68376;-37
2022/11/28 06:01:16;;;;;;;;;9.75;9.25;;;;;12.08;65.79;100480.59;5034192;27;45302;-37
2022/11/28 06:03:42;;;;;;;;;12.00;9.50;;;;;12.06;65.49;100480.63;5024600;28;45460;-37
2022/11/28 06:06:10;;;;;;;;;10.75;8.00;;;;;12.05;65.31;100485.94;5024234;28;45384;-37
2022/11/28 06:08:35;;;;;;;;;14.00;9.00;;;;;12.03;65.47;100486.00;5135896;27;45985;-37
2022/11/28 06:11:01;;;;;;;;;14.25;11.25;;;;;12.03;65.95;100487.75;5048134;27;54323;-37
2022/11/28 06:13:26;;;;;;;;;16.50;8.25;;;;;12.02;65.63;100486.88;5022077;28;45504;-37
2022/11/28 06:15:52;;;;;;;;;12.50;10.00;;;;;12.04;65.88;100492.97;5034178;27;45973;-38
2022/11/28 06:18:17;;;;;;;;;7.75;7.00;;;;;12.05;65.76;100492.03;5037595;28;45968;-37
2022/11/28 06:20:43;;;;;;;;;10.75;9.25;;;;;12.05;65.74;100492.03;5028022;28;45465;-37
2022/11/28 06:23:08;;;;;;;;;16.75;11.50;;;;;12.06;66.14;100498.16;5032249;28;45439;-37
2022/11/28 06:25:33;;;;;;;;;10.75;8.25;;;;;12.11;66.09;100506.69;5027873;28;45378;-37
2022/11/28 06:27:59;;;;;;;;;11.50;10.50;;;;;12.13;65.55;100510.97;5031668;28;72189;-37
2022/11/28 06:30:24;;;;;;;;;9.75;8.75;;;;;12.16;65.96;100507.38;5024803;28;52161;-37
2022/11/28 06:32:49;;;;;;;;;12.50;10.75;;;;;12.22;65.88;100517.66;5031207;28;60367;-36
2022/11/28 06:35:15;;;;;;;;;13.25;9.50;;;;;12.23;65.73;100518.50;5024287;28;68188;-36
2022/11/28 06:37:40;;;;;;;;;20.25;12.25;;;;;12.23;65.53;100516.72;5034697;28;45211;-36
2022/11/28 06:40:06;;;;;;;;;12.00;9.50;;;;;12.24;65.79;100523.69;5030763;28;63011;-37
2022/11/28 06:42:34;;;;;;;;;12.75;10.50;;;;;12.25;65.44;100512.28;5021239;28;45447;-37
2022/11/28 06:44:59;;;;;;;;;10.50;8.75;;;;;12.25;65.25;100511.41;5028569;28;45359;-36
2022/11/28 06:47:25;;;;;;;;;11.50;9.50;;;;;12.25;65.55;100520.16;5023333;28;69672;-37
2022/11/28 06:49:50;;;;;;;;;10.00;8.25;;;;;12.24;64.97;100521.06;5046719;28;45404;-37
2022/11/28 06:52:15;;;;;;;;;11.25;8.00;;;;;12.22;65.29;100524.66;5039197;28;45370;-37
2022/11/28 06:54:41;;;;;;;;;10.00;7.25;;;;;12.20;65.22;100532.59;5019769;28;68893;-37
2022/11/28 06:57:06;;;;;;;;;9.50;7.50;;;;;12.18;65.56;100537.00;5029129;28;45307;-37
2022/11/28 06:59:31;;;;;;;;;15.75;9.25;;;;;12.18;65.41;100539.63;5023586;28;60501;-37
2022/11/28 07:02:00;;;;;;;;;8.75;7.75;;;;;12.17;65.52;100532.69;5030709;27;47084;-37
2022/11/28 07:04:25;;;;;;;;;8.75;7.75;;;;;12.19;65.30;100538.75;5036306;28;45357;-37
2022/11/28 07:06:51;;;;;;;;;9.25;6.50;;;;;12.19;65.48;100530.88;5030164;28;70273;-37
2022/11/28 07:09:16;;;;;;;;;9.00;8.00;;;;;12.19;64.86;100537.88;5032299;28;64261;-37
2022/11/28 07:11:41;;;;;;;;;10.25;6.00;;;;;12.17;65.61;100544.97;5023516;28;72856;-37
2022/11/28 07:14:07;;;;;;;;;8.25;8.25;;;;;12.18;65.43;100541.41;5028776;28;45921;-37
2022/11/28 07:16:32;;;;;;;;;9.50;7.25;;;;;12.18;65.18;100544.88;5035631;28;71711;-37
2022/11/28 07:18:58;;;;;;;;;8.75;7.00;;;;;12.16;65.23;100530.97;5029446;28;45482;-37
2022/11/28 07:21:24;;;;;;;;;9.00;6.75;;;;;12.18;65.05;100539.63;5016016;28;45299;-37
2022/11/28 07:23:50;;;;;;;;;7.00;6.25;;;;;12.18;65.29;100533.53;5033090;28;46386;-37
2022/11/28 07:26:17;;;;;;;;;8.00;7.50;;;;;12.18;65.34;100542.25;5025626;28;45519;-37
2022/11/28 07:28:44;;;;;;;;;8.00;7.00;;;;;12.20;65.06;100534.34;5017838;28;45333;-37
2022/11/28 07:31:17;;;;;;;;;9.00;7.75;;;;;12.22;64.94;100540.41;5015802;28;45405;-37
2022/11/28 07:33:44;;;;;;;;;9.50;6.75;;;;;12.22;65.21;100535.16;5029087;28;45763;-37
2022/11/28 07:36:15;;;;;;;;;10.50;9.00;;;;;12.21;64.80;100541.31;5037396;28;45407;-37
2022/11/28 07:38:41;;;;;;;;;11.00;7.00;;;;;12.20;64.90;100540.47;5043792;27;45458;-37
2022/11/28 07:41:11;;;;;;;;;10.00;7.50;;;;;12.18;64.57;100544.88;5013538;28;61397;-37
2022/11/28 07:43:38;;;;;;;;;9.50;8.00;;;;;12.16;64.83;100551.97;5017523;28;46854;-37
2022/11/28 07:46:05;;;;;;;;;15.25;8.50;;;;;12.12;64.50;100551.22;5033797;28;45819;-37
2022/11/28 07:48:30;;;;;;;;;10.00;6.25;;;;;12.09;64.64;100551.34;5027574;28;45288;-37
2022/11/28 07:50:55;;;;;;;;;11.25;7.50;;;;;12.07;64.53;100553.16;5031147;28;54158;-37
2022/11/28 07:53:21;;;;;;;;;9.00;5.75;;;;;12.05;64.51;100547.09;5027706;28;46163;-37
2022/11/28 07:55:46;;;;;;;;;5.00;5.00;;;;;12.05;64.88;100544.47;5057411;27;68592;-37
2022/11/28 07:58:11;;;;;;;;;8.25;5.25;;;;;12.05;64.92;100547.09;5036107;27;45556;-37
2022/11/28 08:00:37;;;;;;;;;6.50;5.00;;;;;12.08;64.93;100554.88;5027844;28;45466;-37
2022/11/28 08:03:02;;;;;;;;;9.00;6.25;;;;;12.11;64.83;100565.25;5027558;28;71425;-37
2022/11/28 08:05:27;;;;;;;;;9.50;8.00;;;;;12.14;64.91;100564.28;5024335;28;72433;-37
2022/11/28 08:07:53;;;;;;;;;7.00;6.25;;;;;12.16;64.84;100557.22;5034165;28;51250;-37
2022/11/28 08:10:19;;;;;;;;;14.00;6.75;;;;;12.18;64.52;100567.66;5038882;28;45606;-37
2022/11/28 08:12:44;;;;;;;;;9.25;8.25;;;;;12.20;64.23;100571.06;5043097;27;45478;-37
2022/11/28 08:15:10;;;;;;;;;16.00;9.50;;;;;12.21;64.12;100572.78;5021997;28;67952;-37
2022/11/28 08:17:35;;;;;;;;;11.75;7.00;;;;;12.22;64.42;100569.28;5036828;27;45200;-38
2022/11/28 08:20:00;;;;;;;;;10.75;6.00;;;;;12.23;64.12;100565.72;5029624;28;45537;-37
2022/11/28 08:22:26;;;;;;;;;8.25;7.00;;;;;12.24;64.41;100570.91;5035143;28;59567;-37
2022/11/28 08:24:51;;;;;;;;;11.75;7.75;;;;;12.25;64.38;100575.25;5029000;28;46927;-37
2022/11/28 08:27:17;;;;;;;;;6.75;6.00;;;;;12.27;64.29;100573.44;5026708;28;64073;-38
2022/11/28 08:29:42;;;;;;;;;10.00;8.00;;;;;12.28;64.44;100575.13;5028179;28;68642;-37
2022/11/28 08:32:08;;;;;;;;;9.00;5.50;;;;;12.29;64.24;100570.75;5021475;28;47282;-38
2022/11/28 08:34:33;;;;;;;;;6.75;5.00;;;;;12.29;63.69;100576.84;5023226;28;58945;-38
2022/11/28 08:36:58;;;;;;;;;10.00;6.75;;;;;12.30;63.99;100577.69;5025802;28;50189;-38
2022/11/28 08:39:24;;;;;;;;;10.50;7.00;;;;;12.31;63.69;100588.13;5030504;28;45273;-38
2022/11/28 08:41:49;;;;;;;;;8.75;6.00;;;;;12.32;63.79;100574.13;5036257;28;46048;-38
2022/11/28 08:44:15;;;;;;;;;10.00;6.00;;;;;12.34;64.13;100581.91;5031208;28;54428;-38
2022/11/28 08:46:40;;;;;;;;;9.25;6.00;;;;;12.37;63.78;100583.59;5035794;28;45376;-38
2022/11/28 08:49:06;;;;;;;;;9.75;5.25;;;;;12.38;64.01;100567.78;5035922;28;62679;-38
2022/11/28 08:51:31;;;;;;;;;9.50;7.00;;;;;12.42;63.90;100571.16;5037240;28;45356;-38
2022/11/28 08:53:57;;;;;;;;;8.00;7.00;;;;;12.45;63.88;100571.03;5038280;28;45388;-38
2022/11/28 08:56:22;;;;;;;;;11.00;8.75;;;;;12.48;63.58;100568.28;5035404;28;45244;-38
2022/11/28 08:58:47;;;;;;;;;18.25;9.50;;;;;12.50;63.70;100572.56;5037808;28;57849;-38
2022/11/28 09:01:14;;;;;;;;;11.25;7.75;;;;;12.52;63.61;100573.38;5024433;28;59014;-38
2022/11/28 09:03:40;;;;;;;;;14.00;6.75;;;;;12.54;63.27;100562.81;5030850;28;45711;-38
2022/11/28 09:06:05;;;;;;;;;10.50;7.25;;;;;12.56;63.07;100568.84;5036438;28;45443;-39
2022/11/28 09:08:31;;;;;;;;;12.75;8.75;;;;;12.59;63.41;100566.13;5032254;28;45570;-38
2022/11/28 09:10:56;;;;;;;;;13.50;8.50;;;;;12.61;63.56;100561.66;5041951;28;68258;-38
2022/11/28 09:13:21;;;;;;;;;24.25;12.75;;;;;12.64;63.14;100553.69;5036323;28;68094;-38
2022/11/28 09:15:47;;;;;;;;;15.50;10.50;;;;;12.65;63.27;100567.66;5037015;28;67215;-38
2022/11/28 09:18:13;;;;;;;;;21.75;11.00;;;;;12.66;63.15;100571.97;5029755;28;68626;-38
2022/11/28 09:20:39;;;;;;;;;14.25;9.75;;;;;12.67;63.04;100578.94;5031239;28;73390;-38
2022/11/28 09:23:05;;;;;;;;;12.25;10.25;;;;;12.68;63.36;100578.03;5034812;28;45603;-38
2022/11/28 09:25:33;;;;;;;;;20.50;13.00;;;;;12.69;63.21;100577.97;5033274;28;45405;-39
2022/11/28 09:28:00;;;;;;;;;19.50;10.50;;;;;12.70;62.89;100579.69;5048126;28;45365;-38
2022/11/28 09:30:25;;;;;;;;;23.50;15.00;;;;;12.72;63.38;100582.25;5021802;28;45519;-38
2022/11/28 09:32:50;;;;;;;;;24.00;16.50;;;;;12.73;62.89;100586.59;5033165;28;45285;-38
2022/11/28 09:35:16;;;;;;;;;25.75;13.00;;;;;12.72;63.11;100582.25;5030234;28;45431;-38
2022/11/28 09:37:42;;;;;;;;;14.25;11.00;;;;;12.71;63.06;100580.53;5023353;28;45277;-38
2022/11/28 09:40:46;;;;;;;;;17.00;10.00;;;;;12.70;63.09;100586.72;5020438;28;46377;-38
2022/11/28 09:43:20;;;;;;;;;10.50;7.75;;;;;12.71;62.69;100586.66;4947048;28;46790;-38
2022/11/28 09:45:49;;;;;;;;;15.25;9.75;;;;;12.75;63.10;100591.78;4943392;28;45395;-38
2022/11/28 09:48:25;;;;;;;;;18.75;13.00;;;;;12.77;62.94;100598.69;5004946;28;46023;-38
2022/11/28 09:50:55;;;;;;;;;15.50;12.00;;;;;12.77;62.83;100593.44;5032140;27;45421;-38
2022/11/28 09:53:38;;;;;;;;;19.00;11.25;;;;;12.79;62.88;100598.63;5033466;28;45206;-38
2022/11/28 09:56:14;;;;;;;;;12.25;9.00;;;;;12.79;62.52;100604.75;5036057;27;45357;-38
2022/11/28 09:58:57;;;;;;;;;11.25;8.75;;;;;12.78;62.52;100589.88;5030781;28;45330;-38
2022/11/28 10:01:23;;;;;;;;;7.50;6.25;;;;;12.79;62.38;100591.59;5035821;27;45440;-38
2022/11/28 10:04:06;;;;;;;;;10.67;7.33;;;;;12.78;62.74;100583.78;5034108;28;45350;-38
2022/11/28 10:06:38;;;;;;;;;14.00;8.00;;;;;12.79;62.29;100582.88;5035254;28;45299;-38
2022/11/28 10:09:19;;;;;;;;;11.75;8.25;;;;;12.80;62.61;100589.81;5100889;27;45277;-38
2022/11/28 10:12:18;;;;;;;;;20.50;13.50;;;;;12.80;62.33;100577.56;5039055;28;46245;-38
2022/11/28 10:14:49;;;;;;;;;10.75;6.00;;;;;12.82;62.38;100574.88;5020148;28;45477;-38
2022/11/28 10:17:36;;;;;;;;;13.00;7.00;;;;;12.82;61.90;100580.13;5030630;28;45318;-38
2022/11/28 10:20:11;;;;;;;;;14.25;8.75;;;;;12.84;62.48;100583.56;5035012;28;45251;-38
2022/11/28 10:22:49;;;;;;;;;11.25;8.00;;;;;12.86;62.32;100581.72;5029081;28;45985;-38
2022/11/28 10:25:23;;;;;;;;;10.50;7.50;;;;;12.88;62.33;100587.78;5035641;28;45255;-39
2022/11/28 10:27:49;;;;;;;;;27.75;12.75;;;;;12.92;61.96;100591.97;5037443;28;45355;-39
2022/11/28 10:30:21;;;;;;;;;13.25;8.25;;;;;12.94;62.04;100592.78;5026847;28;45310;-39
2022/11/28 10:32:58;;;;;;;;;25.50;13.75;;;;;12.96;62.08;100590.97;5025195;28;46270;-38
2022/11/28 10:35:35;;;;;;;;;13.75;8.50;;;;;12.96;61.96;100587.47;5042173;28;45323;-39
2022/11/28 10:38:01;;;;;;;;;14.75;11.00;;;;;12.95;61.80;100589.25;5027451;27;45550;-38
2022/11/28 10:40:49;;;;;;;;;10.50;6.75;;;;;12.95;61.63;100585.78;5021701;28;45501;-38
2022/11/28 10:43:39;;;;;;;;;8.50;7.00;;;;;12.95;61.45;100588.41;5028643;28;45723;-38
2022/11/28 10:46:16;;;;;;;;;10.75;6.75;;;;;12.94;61.57;100577.00;5029139;28;45772;-38
2022/11/28 10:48:47;;;;;;;;;10.00;6.75;;;;;12.96;61.78;100582.22;5030522;28;45324;-38
2022/11/28 10:51:37;;;;;;;;;10.75;7.00;;;;;12.97;61.32;100582.16;5029124;28;45430;-38
2022/11/28 10:54:13;;;;;;;;;9.50;6.00;;;;;13.01;61.42;100582.88;5032522;28;46280;-38
2022/11/28 10:56:59;;;;;;;;;11.50;5.00;;;;;13.02;61.07;100580.19;5031668;28;45271;-38
2022/11/28 10:59:36;;;;;;;;;5.00;4.00;;;;;13.01;60.92;100581.09;5041918;27;45376;-38
2022/11/28 11:02:40;;;;;;;;;9.25;6.00;;;;;13.01;61.02;100582.88;5021450;27;45211;-38
2022/11/28 11:05:07;;;;;;;;;21.00;9.25;;;;;12.99;60.70;100576.84;5030080;28;46484;-38
2022/11/28 11:07:33;;;;;;;;;12.00;6.00;;;;;13.03;60.54;100575.78;5033961;28;45238;-39
2022/11/28 11:10:26;;;;;;;;;5.75;4.75;;;;;13.05;60.70;100577.47;5037314;28;45313;-38
2022/11/28 11:12:52;;;;;;;;;4.00;3.25;;;;;13.04;60.93;100586.25;5047168;27;45400;-38
2022/11/28 11:15:30;;;;;;;;;8.00;6.75;;;;;13.01;60.55;100575.84;5036804;28;47106;-39
2022/11/28 11:17:56;;;;;;;;;21.00;13.25;;;;;13.01;60.92;100583.72;5029040;28;45529;-38
2022/11/28 11:20:22;;;;;;;;;10.75;7.25;;;;;13.01;60.82;100586.34;5027993;27;45365;-38
2022/11/28 11:22:59;;;;;;;;;10.75;6.00;;;;;13.02;60.55;100590.72;5023599;27;45491;-38
2022/11/28 11:25:26;;;;;;;;;6.00;5.25;;;;;13.04;60.52;100593.28;5031381;28;46245;-39
2022/11/28 11:27:59;;;;;;;;;6.75;4.00;;;;;13.05;60.59;100593.22;5027747;28;45274;-38
2022/11/28 11:30:34;;;;;;;;;13.00;6.50;;;;;13.09;60.72;100592.19;5026010;28;45554;-38
2022/11/28 11:33:01;;;;;;;;;11.25;7.75;;;;;13.14;60.59;100591.13;5028710;28;45456;-38
2022/11/28 11:35:33;;;;;;;;;4.50;4.00;;;;;13.18;60.01;100579.59;5033996;28;46641;-38